sensor_id;sensor_type;location;lat;lon;timestamp;pressure;altitude;pressure_sealevel;temperature;humidity
13033;BME280;6583;42.632;23.298;2022-10-22T00:01:17;93270.91;;;8.34;92.04
13033;BME280;6583;42.632;23.298;2022-10-22T00:03:45;93273.78;;;8.22;93.62
13033;BME280;6583;42.632;23.298;2022-10-22T00:06:12;93272.75;;;8.28;95.24
13033;BME280;6583;42.632;23.298;2022-10-22T00:08:38;93270.13;;;8.33;95.66
13033;BME280;6583;42.632;23.298;2022-10-22T00:11:09;93273.91;;;8.42;95.02
13033;BME280;6583;42.632;23.298;2022-10-22T00:13:36;93274.50;;;8.50;92.75
13033;BME280;6583;42.632;23.298;2022-10-22T00:16:04;93279.78;;;8.50;93.61
13033;BME280;6583;42.632;23.298;2022-10-22T00:18:31;93277.66;;;8.52;92.96
13033;BME280;6583;42.632;23.298;2022-10-22T00:20:58;93276.59;;;8.53;90.92
13033;BME280;6583;42.632;23.298;2022-10-22T00:23:25;93284.78;;;8.51;90.91
13033;BME280;6583;42.632;23.298;2022-10-22T00:25:51;93279.28;;;8.58;92.00
13033;BME280;6583;42.632;23.298;2022-10-22T00:28:18;93277.72;;;8.62;92.08
13033;BME280;6583;42.632;23.298;2022-10-22T00:30:45;93276.13;;;8.66;90.75
13033;BME280;6583;42.632;23.298;2022-10-22T00:33:13;93264.78;;;8.71;91.04
13033;BME280;6583;42.632;23.298;2022-10-22T00:35:40;93261.88;;;8.72;90.85
13033;BME280;6583;42.632;23.298;2022-10-22T00:38:06;93250.25;;;8.78;90.69
13033;BME280;6583;42.632;23.298;2022-10-22T00:40:33;93254.50;;;8.84;90.49
13033;BME280;6583;42.632;23.298;2022-10-22T00:43:00;93253.19;;;8.87;88.42
13033;BME280;6583;42.632;23.298;2022-10-22T00:45:27;93255.53;;;8.78;88.26
13033;BME280;6583;42.632;23.298;2022-10-22T00:47:57;93266.59;;;8.65;89.77
13033;BME280;6583;42.632;23.298;2022-10-22T00:50:30;93265.53;;;8.61;90.84
13033;BME280;6583;42.632;23.298;2022-10-22T00:52:58;93277.16;;;8.60;88.96
13033;BME280;6583;42.632;23.298;2022-10-22T00:55:27;93275.78;;;8.47;88.77
13033;BME280;6583;42.632;23.298;2022-10-22T00:57:55;93264.84;;;8.33;90.96
13033;BME280;6583;42.632;23.298;2022-10-22T01:00:23;93255.28;;;8.27;92.19
13033;BME280;6583;42.632;23.298;2022-10-22T01:02:50;93255.06;;;8.34;93.46
13033;BME280;6583;42.632;23.298;2022-10-22T01:05:18;93246.88;;;8.35;93.20
13033;BME280;6583;42.632;23.298;2022-10-22T01:07:48;93237.91;;;8.41;92.38
13033;BME280;6583;42.632;23.298;2022-10-22T01:10:25;93228.44;;;8.51;91.94
13033;BME280;6583;42.632;23.298;2022-10-22T01:13:07;93227.44;;;8.57;91.94
13033;BME280;6583;42.632;23.298;2022-10-22T01:15:43;93217.41;;;8.64;90.26
13033;BME280;6583;42.632;23.298;2022-10-22T01:18:19;93221.38;;;8.72;89.48
13033;BME280;6583;42.632;23.298;2022-10-22T01:21:04;93217.94;;;8.71;88.45
13033;BME280;6583;42.632;23.298;2022-10-22T01:24:02;93222.16;;;8.62;88.08
13033;BME280;6583;42.632;23.298;2022-10-22T01:26:42;93217.31;;;8.43;88.23
13033;BME280;6583;42.632;23.298;2022-10-22T01:29:20;93218.84;;;8.34;91.21
13033;BME280;6583;42.632;23.298;2022-10-22T01:31:51;93213.59;;;8.39;92.13
13033;BME280;6583;42.632;23.298;2022-10-22T01:34:21;93205.69;;;8.44;92.16
13033;BME280;6583;42.632;23.298;2022-10-22T01:36:49;93200.44;;;8.50;90.67
13033;BME280;6583;42.632;23.298;2022-10-22T01:39:18;93205.44;;;8.51;90.42
13033;BME280;6583;42.632;23.298;2022-10-22T01:41:45;93200.97;;;8.52;90.07
13033;BME280;6583;42.632;23.298;2022-10-22T01:44:32;93189.28;;;8.42;91.30
13033;BME280;6583;42.632;23.298;2022-10-22T01:47:16;93190.28;;;8.36;92.49
13033;BME280;6583;42.632;23.298;2022-10-22T01:50:10;93187.13;;;8.39;91.48
13033;BME280;6583;42.632;23.298;2022-10-22T01:52:56;93196.84;;;8.28;92.42
13033;BME280;6583;42.632;23.298;2022-10-22T01:55:33;93191.56;;;8.28;92.81
13033;BME280;6583;42.632;23.298;2022-10-22T01:58:18;93191.81;;;8.27;93.77
13033;BME280;6583;42.632;23.298;2022-10-22T02:00:55;93199.44;;;8.18;92.48
13033;BME280;6583;42.632;23.298;2022-10-22T02:03:27;93199.69;;;8.06;93.69
13033;BME280;6583;42.632;23.298;2022-10-22T02:05:56;93206.50;;;8.02;94.11
13033;BME280;6583;42.632;23.298;2022-10-22T02:08:28;93197.25;;;8.00;94.92
13033;BME280;6583;42.632;23.298;2022-10-22T02:10:57;93197.03;;;8.06;95.68
13033;BME280;6583;42.632;23.298;2022-10-22T02:13:27;93206.53;;;8.07;93.12
13033;BME280;6583;42.632;23.298;2022-10-22T02:15:58;93203.34;;;8.00;93.86
13033;BME280;6583;42.632;23.298;2022-10-22T02:18:27;93193.03;;;8.04;95.10
13033;BME280;6583;42.632;23.298;2022-10-22T02:20:55;93191.22;;;8.09;93.75
13033;BME280;6583;42.632;23.298;2022-10-22T02:23:23;93189.63;;;8.08;94.69
13033;BME280;6583;42.632;23.298;2022-10-22T02:25:54;93185.66;;;8.11;94.64
13033;BME280;6583;42.632;23.298;2022-10-22T02:28:28;93178.84;;;8.15;93.47
13033;BME280;6583;42.632;23.298;2022-10-22T02:31:05;93175.41;;;8.20;92.58
13033;BME280;6583;42.632;23.298;2022-10-22T02:33:36;93186.53;;;8.27;92.39
13033;BME280;6583;42.632;23.298;2022-10-22T02:36:06;93196.81;;;8.23;90.38
13033;BME280;6583;42.632;23.298;2022-10-22T02:38:34;93205.50;;;8.08;90.65
13033;BME280;6583;42.632;23.298;2022-10-22T02:41:01;93203.84;;;7.97;91.61
13033;BME280;6583;42.632;23.298;2022-10-22T02:43:29;93212.28;;;7.89;92.75
13033;BME280;6583;42.632;23.298;2022-10-22T02:45:56;93207.50;;;7.86;94.67
13033;BME280;6583;42.632;23.298;2022-10-22T02:48:24;93210.69;;;7.93;95.23
13033;BME280;6583;42.632;23.298;2022-10-22T02:50:51;93212.88;;;8.01;93.00
13033;BME280;6583;42.632;23.298;2022-10-22T02:53:17;93209.38;;;7.96;93.26
13033;BME280;6583;42.632;23.298;2022-10-22T02:55:44;93207.56;;;7.96;94.88
13033;BME280;6583;42.632;23.298;2022-10-22T02:58:11;93204.94;;;8.01;94.48
13033;BME280;6583;42.632;23.298;2022-10-22T03:00:38;93209.19;;;8.07;93.29
13033;BME280;6583;42.632;23.298;2022-10-22T03:03:05;93203.91;;;8.13;93.51
13033;BME280;6583;42.632;23.298;2022-10-22T03:05:33;93201.31;;;8.18;92.16
13033;BME280;6583;42.632;23.298;2022-10-22T03:07:59;93198.16;;;8.21;92.15
13033;BME280;6583;42.632;23.298;2022-10-22T03:10:26;93205.84;;;8.27;91.22
13033;BME280;6583;42.632;23.298;2022-10-22T03:12:53;93198.44;;;8.24;90.16
13033;BME280;6583;42.632;23.298;2022-10-22T03:15:20;93200.78;;;8.16;91.75
13033;BME280;6583;42.632;23.298;2022-10-22T03:17:47;93208.44;;;8.17;92.01
13033;BME280;6583;42.632;23.298;2022-10-22T03:20:13;93206.06;;;8.16;92.37
13033;BME280;6583;42.632;23.298;2022-10-22T03:22:42;93196.81;;;8.18;93.09
13033;BME280;6583;42.632;23.298;2022-10-22T03:25:13;93196.03;;;8.18;92.50
13033;BME280;6583;42.632;23.298;2022-10-22T03:27:41;93189.97;;;8.22;91.57
13033;BME280;6583;42.632;23.298;2022-10-22T03:30:09;93190.50;;;8.24;90.40
13033;BME280;6583;42.632;23.298;2022-10-22T03:32:36;93187.34;;;8.27;89.52
13033;BME280;6583;42.632;23.298;2022-10-22T03:35:04;93187.84;;;8.19;90.29
13033;BME280;6583;42.632;23.298;2022-10-22T03:37:31;93192.88;;;8.21;91.23
13033;BME280;6583;42.632;23.298;2022-10-22T03:40:00;93192.34;;;8.24;91.01
13033;BME280;6583;42.632;23.298;2022-10-22T03:42:27;93195.53;;;8.26;91.21
13033;BME280;6583;42.632;23.298;2022-10-22T03:44:54;93174.41;;;8.36;90.77
13033;BME280;6583;42.632;23.298;2022-10-22T03:47:21;93179.47;;;8.38;89.21
13033;BME280;6583;42.632;23.298;2022-10-22T03:49:49;93176.00;;;8.37;89.50
13033;BME280;6583;42.632;23.298;2022-10-22T03:52:16;93173.91;;;8.39;88.68
13033;BME280;6583;42.632;23.298;2022-10-22T03:54:42;93188.69;;;8.35;87.57
13033;BME280;6583;42.632;23.298;2022-10-22T03:57:11;93203.91;;;8.07;89.09
13033;BME280;6583;42.632;23.298;2022-10-22T03:59:40;93203.75;;;7.82;90.19
13033;BME280;6583;42.632;23.298;2022-10-22T04:02:08;93196.28;;;7.68;93.10
13033;BME280;6583;42.632;23.298;2022-10-22T04:04:35;93201.03;;;7.71;94.77
13033;BME280;6583;42.632;23.298;2022-10-22T04:07:02;93200.03;;;7.78;94.60
13033;BME280;6583;42.632;23.298;2022-10-22T04:09:30;93183.16;;;7.84;94.03
13033;BME280;6583;42.632;23.298;2022-10-22T04:11:57;93171.84;;;7.94;93.53
13033;BME280;6583;42.632;23.298;2022-10-22T04:14:25;93169.22;;;7.99;92.49
13033;BME280;6583;42.632;23.298;2022-10-22T04:16:52;93173.53;;;8.10;92.00
13033;BME280;6583;42.632;23.298;2022-10-22T04:19:19;93173.81;;;8.19;91.20
13033;BME280;6583;42.632;23.298;2022-10-22T04:21:46;93173.84;;;8.24;90.26
13033;BME280;6583;42.632;23.298;2022-10-22T04:24:12;93171.19;;;8.24;90.34
13033;BME280;6583;42.632;23.298;2022-10-22T04:26:39;93166.44;;;8.21;90.68
13033;BME280;6583;42.632;23.298;2022-10-22T04:29:06;93169.84;;;8.16;90.27
13033;BME280;6583;42.632;23.298;2022-10-22T04:31:34;93159.25;;;8.16;91.21
13033;BME280;6583;42.632;23.298;2022-10-22T04:34:01;93174.09;;;8.17;91.51
13033;BME280;6583;42.632;23.298;2022-10-22T04:36:28;93176.41;;;8.03;91.71
13033;BME280;6583;42.632;23.298;2022-10-22T04:38:56;93176.84;;;7.90;92.51
13033;BME280;6583;42.632;23.298;2022-10-22T04:41:25;93181.56;;;7.83;94.60
13033;BME280;6583;42.632;23.298;2022-10-22T04:43:53;93170.44;;;7.76;95.39
13033;BME280;6583;42.632;23.298;2022-10-22T04:46:20;93176.25;;;7.78;96.77
13033;BME280;6583;42.632;23.298;2022-10-22T04:48:50;93172.59;;;7.84;96.56
13033;BME280;6583;42.632;23.298;2022-10-22T04:51:18;93169.44;;;7.92;97.07
13033;BME280;6583;42.632;23.298;2022-10-22T04:53:46;93169.75;;;8.01;96.62
13033;BME280;6583;42.632;23.298;2022-10-22T04:56:15;93169.28;;;8.09;96.13
13033;BME280;6583;42.632;23.298;2022-10-22T04:58:45;93177.72;;;8.06;96.03
13033;BME280;6583;42.632;23.298;2022-10-22T05:01:14;93182.72;;;8.02;95.61
13033;BME280;6583;42.632;23.298;2022-10-22T05:03:42;93186.97;;;8.03;95.58
13033;BME280;6583;42.632;23.298;2022-10-22T05:06:10;93186.47;;;8.06;96.90
13033;BME280;6583;42.632;23.298;2022-10-22T05:08:37;93190.44;;;8.09;97.55
13033;BME280;6583;42.632;23.298;2022-10-22T05:11:10;93185.94;;;8.15;96.93
13033;BME280;6583;42.632;23.298;2022-10-22T05:13:37;93199.75;;;8.22;97.13
13033;BME280;6583;42.632;23.298;2022-10-22T05:16:04;93203.72;;;8.24;96.86
13033;BME280;6583;42.632;23.298;2022-10-22T05:18:33;93220.91;;;8.22;97.04
13033;BME280;6583;42.632;23.298;2022-10-22T05:20:59;93213.22;;;8.20;97.19
13033;BME280;6583;42.632;23.298;2022-10-22T05:23:28;93207.13;;;8.20;97.67
13033;BME280;6583;42.632;23.298;2022-10-22T05:25:54;93205.84;;;8.22;96.35
13033;BME280;6583;42.632;23.298;2022-10-22T05:28:21;93197.38;;;8.20;95.91
13033;BME280;6583;42.632;23.298;2022-10-22T05:30:52;93195.00;;;8.24;95.71
13033;BME280;6583;42.632;23.298;2022-10-22T05:33:19;93198.97;;;8.32;96.09
13033;BME280;6583;42.632;23.298;2022-10-22T05:35:47;93208.78;;;8.31;97.50
13033;BME280;6583;42.632;23.298;2022-10-22T05:38:13;93215.13;;;8.35;96.76
13033;BME280;6583;42.632;23.298;2022-10-22T05:40:41;93223.88;;;8.41;95.80
13033;BME280;6583;42.632;23.298;2022-10-22T05:43:08;93213.56;;;8.34;94.96
13033;BME280;6583;42.632;23.298;2022-10-22T05:45:35;93217.75;;;8.30;95.12
13033;BME280;6583;42.632;23.298;2022-10-22T05:48:02;93224.13;;;8.34;94.80
13033;BME280;6583;42.632;23.298;2022-10-22T05:50:29;93208.00;;;8.41;94.04
13033;BME280;6583;42.632;23.298;2022-10-22T05:52:55;93215.75;;;8.47;93.80
13033;BME280;6583;42.632;23.298;2022-10-22T05:55:22;93204.38;;;8.52;94.90
13033;BME280;6583;42.632;23.298;2022-10-22T05:57:50;93206.78;;;8.54;95.15
13033;BME280;6583;42.632;23.298;2022-10-22T06:00:17;93215.00;;;8.57;95.40
13033;BME280;6583;42.632;23.298;2022-10-22T06:02:48;93208.91;;;8.57;94.63
13033;BME280;6583;42.632;23.298;2022-10-22T06:05:15;93217.91;;;8.61;93.46
13033;BME280;6583;42.632;23.298;2022-10-22T06:07:41;93219.78;;;8.65;94.53
13033;BME280;6583;42.632;23.298;2022-10-22T06:10:13;93224.84;;;8.72;94.44
13033;BME280;6583;42.632;23.298;2022-10-22T06:12:40;93223.53;;;8.80;93.17
13033;BME280;6583;42.632;23.298;2022-10-22T06:15:11;93209.25;;;8.86;92.37
13033;BME280;6583;42.632;23.298;2022-10-22T06:17:38;93218.53;;;8.94;91.55
13033;BME280;6583;42.632;23.298;2022-10-22T06:20:06;93219.88;;;9.01;92.59
13033;BME280;6583;42.632;23.298;2022-10-22T06:22:33;93223.88;;;9.09;93.69
13033;BME280;6583;42.632;23.298;2022-10-22T06:25:00;93232.34;;;9.11;94.37
13033;BME280;6583;42.632;23.298;2022-10-22T06:27:26;93228.91;;;9.16;93.29
13033;BME280;6583;42.632;23.298;2022-10-22T06:29:53;93226.00;;;9.17;93.34
13033;BME280;6583;42.632;23.298;2022-10-22T06:32:21;93224.94;;;9.23;93.07
13033;BME280;6583;42.632;23.298;2022-10-22T06:34:47;93224.94;;;9.23;94.74
13033;BME280;6583;42.632;23.298;2022-10-22T06:37:14;93221.25;;;9.25;94.82
13033;BME280;6583;42.632;23.298;2022-10-22T06:39:41;93230.22;;;9.23;95.08
13033;BME280;6583;42.632;23.298;2022-10-22T06:42:08;93239.78;;;9.30;96.27
13033;BME280;6583;42.632;23.298;2022-10-22T06:44:35;93239.25;;;9.33;95.50
13033;BME280;6583;42.632;23.298;2022-10-22T06:47:01;93232.38;;;9.37;94.66
13033;BME280;6583;42.632;23.298;2022-10-22T06:49:29;93231.31;;;9.38;93.56
13033;BME280;6583;42.632;23.298;2022-10-22T06:51:56;93233.97;;;9.38;94.21
13033;BME280;6583;42.632;23.298;2022-10-22T06:54:23;93227.06;;;9.37;93.94
13033;BME280;6583;42.632;23.298;2022-10-22T06:56:49;93225.47;;;9.41;95.22
13033;BME280;6583;42.632;23.298;2022-10-22T06:59:16;93232.91;;;9.39;95.31
13033;BME280;6583;42.632;23.298;2022-10-22T07:01:43;93238.72;;;9.41;95.38
13033;BME280;6583;42.632;23.298;2022-10-22T07:04:09;93233.44;;;9.46;94.12
13033;BME280;6583;42.632;23.298;2022-10-22T07:06:37;93236.63;;;9.48;94.00
13033;BME280;6583;42.632;23.298;2022-10-22T07:09:04;93240.06;;;9.49;93.59
13033;BME280;6583;42.632;23.298;2022-10-22T07:11:37;93242.19;;;9.57;94.91
13033;BME280;6583;42.632;23.298;2022-10-22T07:14:04;93238.47;;;9.58;96.05
13033;BME280;6583;42.632;23.298;2022-10-22T07:16:31;93229.72;;;9.68;95.47
13033;BME280;6583;42.632;23.298;2022-10-22T07:18:58;93225.47;;;9.72;95.54
13033;BME280;6583;42.632;23.298;2022-10-22T07:21:25;93223.91;;;9.71;95.50
13033;BME280;6583;42.632;23.298;2022-10-22T07:23:53;93215.97;;;9.76;95.85
13033;BME280;6583;42.632;23.298;2022-10-22T07:26:19;93233.16;;;9.84;97.23
13033;BME280;6583;42.632;23.298;2022-10-22T07:28:46;93225.22;;;9.89;97.03
13033;BME280;6583;42.632;23.298;2022-10-22T07:31:14;93231.81;;;9.91;95.56
13033;BME280;6583;42.632;23.298;2022-10-22T07:33:41;93235.28;;;9.97;95.48
13033;BME280;6583;42.632;23.298;2022-10-22T07:36:10;93232.88;;;10.01;97.00
13033;BME280;6583;42.632;23.298;2022-10-22T07:38:41;93234.72;;;10.05;96.42
13033;BME280;6583;42.632;23.298;2022-10-22T07:41:10;93218.00;;;10.10;95.51
13033;BME280;6583;42.632;23.298;2022-10-22T07:43:36;93223.56;;;10.13;95.11
13033;BME280;6583;42.632;23.298;2022-10-22T07:46:03;93223.28;;;10.20;94.31
13033;BME280;6583;42.632;23.298;2022-10-22T07:48:31;93226.72;;;10.21;94.60
13033;BME280;6583;42.632;23.298;2022-10-22T07:50:57;93213.72;;;10.29;93.95
13033;BME280;6583;42.632;23.298;2022-10-22T07:53:24;93211.63;;;10.31;93.51
13033;BME280;6583;42.632;23.298;2022-10-22T07:55:51;93201.53;;;10.39;93.89
13033;BME280;6583;42.632;23.298;2022-10-22T07:58:20;93200.41;;;10.45;92.07
13033;BME280;6583;42.632;23.298;2022-10-22T08:00:47;93199.88;;;10.48;91.66
13033;BME280;6583;42.632;23.298;2022-10-22T08:03:16;93201.25;;;10.45;92.21
13033;BME280;6583;42.632;23.298;2022-10-22T08:05:43;93211.56;;;10.52;92.40
13033;BME280;6583;42.632;23.298;2022-10-22T08:08:11;93224.25;;;10.60;93.53
13033;BME280;6583;42.632;23.298;2022-10-22T08:10:38;93224.25;;;10.60;90.95
13033;BME280;6583;42.632;23.298;2022-10-22T08:13:04;93222.63;;;10.69;90.56
13033;BME280;6583;42.632;23.298;2022-10-22T08:15:32;93213.56;;;10.76;89.20
13033;BME280;6583;42.632;23.298;2022-10-22T08:17:59;93215.69;;;10.79;88.46
13033;BME280;6583;42.632;23.298;2022-10-22T08:20:26;93204.78;;;10.85;89.03
13033;BME280;6583;42.632;23.298;2022-10-22T08:22:53;93201.28;;;10.90;89.30
13033;BME280;6583;42.632;23.298;2022-10-22T08:25:19;93204.97;;;10.99;89.56
13033;BME280;6583;42.632;23.298;2022-10-22T08:27:46;93207.56;;;11.09;88.69
13033;BME280;6583;42.632;23.298;2022-10-22T08:30:13;93193.44;;;11.14;89.45
13033;BME280;6583;42.632;23.298;2022-10-22T08:32:41;93200.78;;;11.27;88.24
13033;BME280;6583;42.632;23.298;2022-10-22T08:35:08;93195.16;;;11.34;87.77
13033;BME280;6583;42.632;23.298;2022-10-22T08:37:35;93203.88;;;11.40;85.57
13033;BME280;6583;42.632;23.298;2022-10-22T08:40:02;93203.03;;;11.50;85.69
13033;BME280;6583;42.632;23.298;2022-10-22T08:42:49;93206.13;;;11.62;87.65
13033;BME280;6583;42.632;23.298;2022-10-22T08:45:23;93206.06;;;11.67;86.21
13033;BME280;6583;42.632;23.298;2022-10-22T08:48:07;93200.16;;;11.75;85.80
13033;BME280;6583;42.632;23.298;2022-10-22T08:50:36;93203.88;;;11.74;84.75
13033;BME280;6583;42.632;23.298;2022-10-22T08:53:07;93204.81;;;11.89;85.83
13033;BME280;6583;42.632;23.298;2022-10-22T08:55:37;93213.81;;;11.98;85.09
13033;BME280;6583;42.632;23.298;2022-10-22T08:58:11;93203.09;;;12.08;84.57
13033;BME280;6583;42.632;23.298;2022-10-22T09:00:44;93212.03;;;12.17;83.49
13033;BME280;6583;42.632;23.298;2022-10-22T09:03:29;93214.63;;;12.22;83.84
13033;BME280;6583;42.632;23.298;2022-10-22T09:06:02;93208.72;;;12.31;83.33
13033;BME280;6583;42.632;23.298;2022-10-22T09:08:31;93204.34;;;12.40;81.62
13033;BME280;6583;42.632;23.298;2022-10-22T09:11:02;93200.63;;;12.41;81.94
13033;BME280;6583;42.632;23.298;2022-10-22T09:13:31;93205.00;;;12.51;81.57
13033;BME280;6583;42.632;23.298;2022-10-22T09:16:00;93201.50;;;12.55;80.80
13033;BME280;6583;42.632;23.298;2022-10-22T09:18:41;93192.78;;;12.50;81.10
13033;BME280;6583;42.632;23.298;2022-10-22T09:21:17;93193.41;;;12.66;81.55
13033;BME280;6583;42.632;23.298;2022-10-22T09:23:56;93198.31;;;12.77;80.32
13033;BME280;6583;42.632;23.298;2022-10-22T09:26:25;93200.03;;;12.87;79.99
13033;BME280;6583;42.632;23.298;2022-10-22T09:28:52;93206.34;;;12.96;80.12
13033;BME280;6583;42.632;23.298;2022-10-22T09:31:18;93194.50;;;13.03;77.78
13033;BME280;6583;42.632;23.298;2022-10-22T09:33:49;93186.59;;;12.97;77.82
13033;BME280;6583;42.632;23.298;2022-10-22T09:36:18;93194.50;;;13.03;77.15
13033;BME280;6583;42.632;23.298;2022-10-22T09:38:48;93196.53;;;13.11;77.47
13033;BME280;6583;42.632;23.298;2022-10-22T09:41:16;93191.13;;;13.16;78.11
13033;BME280;6583;42.632;23.298;2022-10-22T09:43:45;93177.94;;;13.25;77.73
13033;BME280;6583;42.632;23.298;2022-10-22T09:46:15;93176.47;;;13.19;78.00
13033;BME280;6583;42.632;23.298;2022-10-22T09:48:45;93176.59;;;13.27;76.83
13033;BME280;6583;42.632;23.298;2022-10-22T09:51:19;93165.88;;;13.32;77.09
13033;BME280;6583;42.632;23.298;2022-10-22T09:53:55;93152.47;;;13.38;77.27
13033;BME280;6583;42.632;23.298;2022-10-22T09:56:26;93147.28;;;13.46;77.18
13033;BME280;6583;42.632;23.298;2022-10-22T09:58:55;93153.53;;;13.56;78.07
13033;BME280;6583;42.632;23.298;2022-10-22T10:01:24;93164.03;;;13.66;76.09
13033;BME280;6583;42.632;23.298;2022-10-22T10:03:52;93165.81;;;13.70;77.04
13033;BME280;6583;42.632;23.298;2022-10-22T10:06:22;93171.06;;;13.76;77.70
13033;BME280;6583;42.632;23.298;2022-10-22T10:08:49;93166.81;;;13.75;75.89
13033;BME280;6583;42.632;23.298;2022-10-22T10:11:22;93160.91;;;13.78;75.55
13033;BME280;6583;42.632;23.298;2022-10-22T10:14:00;93147.69;;;13.86;77.45
13033;BME280;6583;42.632;23.298;2022-10-22T10:16:37;93148.84;;;13.80;75.30
13033;BME280;6583;42.632;23.298;2022-10-22T10:19:19;93146.06;;;13.85;75.14
13033;BME280;6583;42.632;23.298;2022-10-22T10:21:59;93151.63;;;13.89;75.10
13033;BME280;6583;42.632;23.298;2022-10-22T10:24:39;93155.78;;;13.95;74.12
13033;BME280;6583;42.632;23.298;2022-10-22T10:27:14;93145.03;;;14.00;74.85
13033;BME280;6583;42.632;23.298;2022-10-22T10:29:49;93144.72;;;14.02;74.02
13033;BME280;6583;42.632;23.298;2022-10-22T10:32:29;93141.78;;;14.03;73.68
13033;BME280;6583;42.632;23.298;2022-10-22T10:35:10;93141.06;;;14.11;73.74
13033;BME280;6583;42.632;23.298;2022-10-22T10:37:45;93137.22;;;14.18;74.23
13033;BME280;6583;42.632;23.298;2022-10-22T10:40:22;93134.84;;;14.30;72.73
13033;BME280;6583;42.632;23.298;2022-10-22T10:42:54;93133.59;;;14.27;73.01
13033;BME280;6583;42.632;23.298;2022-10-22T10:45:30;93128.44;;;14.31;74.21
13033;BME280;6583;42.632;23.298;2022-10-22T10:48:21;93113.50;;;14.30;71.17
13033;BME280;6583;42.632;23.298;2022-10-22T10:51:01;93116.06;;;14.35;74.00
13033;BME280;6583;42.632;23.298;2022-10-22T10:53:42;93105.38;;;14.35;72.06
13033;BME280;6583;42.632;23.298;2022-10-22T10:56:26;93104.41;;;14.45;71.38
13033;BME280;6583;42.632;23.298;2022-10-22T10:59:02;93094.50;;;14.45;72.38
13033;BME280;6583;42.632;23.298;2022-10-22T11:01:38;93091.72;;;14.51;74.91
13033;BME280;6583;42.632;23.298;2022-10-22T11:04:32;93082.53;;;14.43;72.82
13033;BME280;6583;42.632;23.298;2022-10-22T11:07:06;93088.94;;;14.56;73.26
13033;BME280;6583;42.632;23.298;2022-10-22T11:09:38;93075.91;;;14.54;71.39
13033;BME280;6583;42.632;23.298;2022-10-22T11:12:11;93071.75;;;14.62;71.95
13033;BME280;6583;42.632;23.298;2022-10-22T11:14:55;93071.94;;;14.65;72.36
13033;BME280;6583;42.632;23.298;2022-10-22T11:17:27;93073.28;;;14.77;72.56
13033;BME280;6583;42.632;23.298;2022-10-22T11:20:02;93070.50;;;14.82;70.03
13033;BME280;6583;42.632;23.298;2022-10-22T11:22:34;93064.09;;;14.83;71.35
13033;BME280;6583;42.632;23.298;2022-10-22T11:25:13;93057.22;;;14.91;70.63
13033;BME280;6583;42.632;23.298;2022-10-22T11:27:45;93050.56;;;15.02;70.63
13033;BME280;6583;42.632;23.298;2022-10-22T11:30:15;93047.44;;;15.09;72.36
13033;BME280;6583;42.632;23.298;2022-10-22T11:32:44;93044.28;;;15.07;70.46
13033;BME280;6583;42.632;23.298;2022-10-22T11:35:15;93032.56;;;15.16;70.19
13033;BME280;6583;42.632;23.298;2022-10-22T11:37:44;93045.22;;;15.25;70.96
13033;BME280;6583;42.632;23.298;2022-10-22T11:40:18;93032.78;;;15.29;70.16
13033;BME280;6583;42.632;23.298;2022-10-22T11:42:49;93031.22;;;15.28;69.95
13033;BME280;6583;42.632;23.298;2022-10-22T11:45:28;93037.41;;;15.37;70.19
13033;BME280;6583;42.632;23.298;2022-10-22T11:47:58;93037.41;;;15.37;68.84
13033;BME280;6583;42.632;23.298;2022-10-22T11:50:45;93040.91;;;15.46;68.74
13033;BME280;6583;42.632;23.298;2022-10-22T11:53:30;93033.38;;;15.48;69.87
13033;BME280;6583;42.632;23.298;2022-10-22T11:56:03;93029.19;;;15.56;68.32
13033;BME280;6583;42.632;23.298;2022-10-22T11:58:46;93027.88;;;15.53;66.73
13033;BME280;6583;42.632;23.298;2022-10-22T12:01:39;93029.97;;;15.56;66.37
13033;BME280;6583;42.632;23.298;2022-10-22T12:04:18;93028.56;;;15.59;66.44
13033;BME280;6583;42.632;23.298;2022-10-22T12:06:55;93025.56;;;15.60;66.78
13033;BME280;6583;42.632;23.298;2022-10-22T12:09:22;93029.09;;;15.70;66.54
13033;BME280;6583;42.632;23.298;2022-10-22T12:11:52;93023.72;;;15.70;67.39
13033;BME280;6583;42.632;23.298;2022-10-22T12:14:21;93023.13;;;15.73;66.92
13033;BME280;6583;42.632;23.298;2022-10-22T12:16:51;93019.69;;;15.81;66.87
13033;BME280;6583;42.632;23.298;2022-10-22T12:19:25;93015.47;;;15.80;66.01
13033;BME280;6583;42.632;23.298;2022-10-22T12:21:54;93019.09;;;15.84;65.40
13033;BME280;6583;42.632;23.298;2022-10-22T12:24:22;93010.00;;;15.94;65.57
13033;BME280;6583;42.632;23.298;2022-10-22T12:26:51;93005.91;;;15.96;65.44
13033;BME280;6583;42.632;23.298;2022-10-22T12:29:19;92990.00;;;16.00;64.84
13033;BME280;6583;42.632;23.298;2022-10-22T12:31:48;92999.00;;;16.04;65.62
13033;BME280;6583;42.632;23.298;2022-10-22T12:34:16;93000.56;;;16.05;68.45
13033;BME280;6583;42.632;23.298;2022-10-22T12:36:45;93002.59;;;16.00;65.22
13033;BME280;6583;42.632;23.298;2022-10-22T12:39:14;93007.97;;;16.00;66.15
13033;BME280;6583;42.632;23.298;2022-10-22T12:41:42;93008.56;;;15.96;65.20
13033;BME280;6583;42.632;23.298;2022-10-22T12:44:13;93005.28;;;16.00;65.61
13033;BME280;6583;42.632;23.298;2022-10-22T12:46:41;93002.63;;;16.08;67.39
13033;BME280;6583;42.632;23.298;2022-10-22T12:49:13;92998.50;;;16.02;66.82
13033;BME280;6583;42.632;23.298;2022-10-22T12:51:41;92996.19;;;16.09;69.43
13033;BME280;6583;42.632;23.298;2022-10-22T12:54:12;92992.38;;;16.02;66.42
13033;BME280;6583;42.632;23.298;2022-10-22T12:56:41;92992.69;;;16.09;68.44
13033;BME280;6583;42.632;23.298;2022-10-22T12:59:17;92987.66;;;16.07;67.35
13033;BME280;6583;42.632;23.298;2022-10-22T13:01:45;92979.00;;;16.10;69.16
13033;BME280;6583;42.632;23.298;2022-10-22T13:04:30;92984.19;;;16.07;73.48
13033;BME280;6583;42.632;23.298;2022-10-22T13:07:12;92973.63;;;16.02;73.11
13033;BME280;6583;42.632;23.298;2022-10-22T13:09:42;92986.25;;;16.01;69.45
13033;BME280;6583;42.632;23.298;2022-10-22T13:12:10;92971.13;;;16.05;73.91
13033;BME280;6583;42.632;23.298;2022-10-22T13:14:43;92979.13;;;15.96;70.94
13033;BME280;6583;42.632;23.298;2022-10-22T13:17:13;92979.28;;;16.00;74.23
13033;BME280;6583;42.632;23.298;2022-10-22T13:19:43;92984.97;;;15.98;70.47
13033;BME280;6583;42.632;23.298;2022-10-22T13:22:29;92982.44;;;15.93;66.75
13033;BME280;6583;42.632;23.298;2022-10-22T13:24:57;92978.38;;;16.05;70.55